Saltar para o conteúdo principal

Alvalade

ID 1210783 · 37.9468, -8.3945 mapa

Última leitura · 2026-05-09 19:00 (Europe/Lisbon)

Temperatura
18.1 °C
Humidade
66 %
Pressão
Precipitação
0.0 mm
Radiação
876 W/m²
Velocidade do vento
14.0 km/h
Direcção do vento
S · Sul

Histórico de 24 horas

Hora (Europe/Lisbon) Temperatura Humidade Pressão Chuva Vento Direcção
2026-05-09 19:00 18.1 °C 66 % 0.0 mm 14.0 km/h S
2026-05-09 18:00 19.2 °C 58 % 0.0 mm 21.2 km/h SW
2026-05-09 17:00 19.4 °C 58 % 0.0 mm 27.0 km/h SW
2026-05-09 16:00 20.5 °C 56 % 0.0 mm 25.2 km/h SW
2026-05-09 15:00 20.5 °C 57 % 0.0 mm 27.0 km/h SW
2026-05-09 14:00 20.0 °C 54 % 0.0 mm 24.1 km/h SW
2026-05-09 13:00 19.3 °C 58 % 0.0 mm 25.2 km/h SW
2026-05-09 12:00 17.6 °C 72 % 0.0 mm 22.3 km/h SW
2026-05-09 11:00 17.1 °C 78 % 0.0 mm 15.5 km/h SW
2026-05-09 10:00 15.5 °C 93 % 0.0 mm 14.8 km/h SW
2026-05-09 09:00 13.6 °C 98 % 0.7 mm 1.4 km/h W
2026-05-09 08:00 13.0 °C 98 % 1.3 mm 3.6 km/h N
2026-05-09 07:00 12.9 °C 97 % 4.9 mm 2.5 km/h SW
2026-05-09 06:00 13.5 °C 96 % 1.7 mm 5.4 km/h SW
2026-05-09 05:00 12.8 °C 96 % 0.0 mm 12.6 km/h SE
2026-05-09 04:00 12.3 °C 96 % 0.0 mm 6.1 km/h SE
2026-05-09 03:00 12.8 °C 95 % 0.0 mm 6.5 km/h SE
2026-05-09 02:00 12.9 °C 94 % 0.0 mm 7.9 km/h SE
2026-05-09 01:00 12.7 °C 93 % 0.0 mm 7.6 km/h SE
2026-05-09 00:00 12.4 °C 93 % 0.0 mm 14.8 km/h SE
2026-05-08 23:00 13.0 °C 93 % 1.7 mm 16.2 km/h SE
2026-05-08 22:00 14.3 °C 91 % 1.5 mm 15.8 km/h SE
2026-05-08 21:00 14.2 °C 90 % 1.2 mm 13.3 km/h SE
2026-05-08 20:00 15.2 °C 90 % 1.2 mm 16.6 km/h S